sensor_id;sensor_type;location;lat;lon;timestamp;pressure;altitude;pressure_sealevel;temperature;humidity
39223;BME280;24936;46.328;11.026;2023-04-10T00:01:27;94892.53;;;1.86;75.01
39223;BME280;24936;46.328;11.026;2023-04-10T00:03:52;94893.72;;;1.43;76.48
39223;BME280;24936;46.328;11.026;2023-04-10T00:06:17;94886.16;;;1.19;77.20
39223;BME280;24936;46.328;11.026;2023-04-10T00:08:43;94901.91;;;0.97;78.38
39223;BME280;24936;46.328;11.026;2023-04-10T00:11:08;94888.66;;;0.84;78.87
39223;BME280;24936;46.328;11.026;2023-04-10T00:13:33;94883.78;;;0.97;78.24
39223;BME280;24936;46.328;11.026;2023-04-10T00:15:59;94886.28;;;0.99;78.06
39223;BME280;24936;46.328;11.026;2023-04-10T00:18:24;94901.06;;;0.97;77.98
39223;BME280;24936;46.328;11.026;2023-04-10T00:20:49;94877.16;;;1.09;77.14
39223;BME280;24936;46.328;11.026;2023-04-10T00:23:15;94883.88;;;1.13;76.36
39223;BME280;24936;46.328;11.026;2023-04-10T00:25:40;94883.03;;;1.13;76.30
39223;BME280;24936;46.328;11.026;2023-04-10T00:28:06;94877.81;;;0.76;77.40
39223;BME280;24936;46.328;11.026;2023-04-10T00:30:31;94879.13;;;1.04;76.99
39223;BME280;24936;46.328;11.026;2023-04-10T00:32:56;94881.03;;;1.37;75.43
39223;BME280;24936;46.328;11.026;2023-04-10T00:35:22;94882.56;;;1.41;75.16
39223;BME280;24936;46.328;11.026;2023-04-10T00:37:47;94870.97;;;1.31;74.75
39223;BME280;24936;46.328;11.026;2023-04-10T00:40:14;94871.56;;;1.18;75.67
39223;BME280;24936;46.328;11.026;2023-04-10T00:42:40;94873.59;;;0.93;76.86
39223;BME280;24936;46.328;11.026;2023-04-10T00:45:06;94874.16;;;0.42;78.52
39223;BME280;24936;46.328;11.026;2023-04-10T00:47:31;94876.97;;;0.17;80.19
39223;BME280;24936;46.328;11.026;2023-04-10T00:49:56;94876.66;;;0.24;80.28
39223;BME280;24936;46.328;11.026;2023-04-10T00:52:23;94879.56;;;0.75;78.69
39223;BME280;24936;46.328;11.026;2023-04-10T00:54:50;94877.75;;;0.78;78.06
39223;BME280;24936;46.328;11.026;2023-04-10T00:57:16;94872.69;;;0.74;77.63
39223;BME280;24936;46.328;11.026;2023-04-10T00:59:42;94873.47;;;0.57;77.83
39223;BME280;24936;46.328;11.026;2023-04-10T01:02:08;94879.78;;;0.52;78.20
39223;BME280;24936;46.328;11.026;2023-04-10T01:04:35;94877.88;;;0.55;78.07
39223;BME280;24936;46.328;11.026;2023-04-10T01:09:47;94870.19;;;0.35;78.27
39223;BME280;24936;46.328;11.026;2023-04-10T01:15:11;94876.53;;;0.27;78.78
39223;BME280;24936;46.328;11.026;2023-04-10T01:18:03;94871.56;;;0.42;78.18
39223;BME280;24936;46.328;11.026;2023-04-10T01:20:34;94875.75;;;0.25;78.69
39223;BME280;24936;46.328;11.026;2023-04-10T01:25:51;94891.50;;;-0.21;79.92
39223;BME280;24936;46.328;11.026;2023-04-10T01:30:45;94883.78;;;-0.43;81.63
39223;BME280;24936;46.328;11.026;2023-04-10T01:33:15;94889.47;;;-0.55;82.15
39223;BME280;24936;46.328;11.026;2023-04-10T01:35:43;94883.31;;;-0.53;82.50
39223;BME280;24936;46.328;11.026;2023-04-10T01:38:15;94886.78;;;0.29;79.89
39223;BME280;24936;46.328;11.026;2023-04-10T01:40:42;94888.09;;;0.39;78.27
39223;BME280;24936;46.328;11.026;2023-04-10T01:43:15;94885.34;;;-0.18;79.72
39223;BME280;24936;46.328;11.026;2023-04-10T01:45:41;94887.50;;;-0.28;80.37
39223;BME280;24936;46.328;11.026;2023-04-10T01:48:09;94877.59;;;-0.18;79.78
39223;BME280;24936;46.328;11.026;2023-04-10T01:50:36;94883.34;;;-0.11;79.37
39223;BME280;24936;46.328;11.026;2023-04-10T01:53:04;94876.31;;;-0.08;79.79
39223;BME280;24936;46.328;11.026;2023-04-10T01:55:31;94882.41;;;-0.09;79.02
39223;BME280;24936;46.328;11.026;2023-04-10T01:57:58;94877.84;;;-0.45;79.87
39223;BME280;24936;46.328;11.026;2023-04-10T02:00:24;94872.41;;;-0.82;81.61
39223;BME280;24936;46.328;11.026;2023-04-10T02:02:49;94880.34;;;-0.64;81.76
39223;BME280;24936;46.328;11.026;2023-04-10T02:05:15;94876.41;;;-0.52;81.08
39223;BME280;24936;46.328;11.026;2023-04-10T02:08:11;94876.41;;;-0.52;80.80
39223;BME280;24936;46.328;11.026;2023-04-10T02:13:09;94876.03;;;-0.64;80.63
39223;BME280;24936;46.328;11.026;2023-04-10T02:15:35;94876.44;;;-0.74;80.82
39223;BME280;24936;46.328;11.026;2023-04-10T02:18:06;94876.06;;;-0.22;79.86
39223;BME280;24936;46.328;11.026;2023-04-10T02:20:32;94869.69;;;-0.15;78.90
39223;BME280;24936;46.328;11.026;2023-04-10T02:22:59;94872.28;;;-0.56;79.75
39223;BME280;24936;46.328;11.026;2023-04-10T02:25:30;94867.84;;;-0.75;80.78
39223;BME280;24936;46.328;11.026;2023-04-10T02:27:57;94871.41;;;-1.00;81.71
39223;BME280;24936;46.328;11.026;2023-04-10T02:30:22;94868.09;;;-0.81;81.54
39223;BME280;24936;46.328;11.026;2023-04-10T02:32:48;94875.19;;;-0.86;81.32
39223;BME280;24936;46.328;11.026;2023-04-10T02:35:14;94872.03;;;-0.50;80.30
39223;BME280;24936;46.328;11.026;2023-04-10T02:37:40;94871.44;;;-0.57;79.90
39223;BME280;24936;46.328;11.026;2023-04-10T02:40:07;94868.28;;;-0.43;79.20
39223;BME280;24936;46.328;11.026;2023-04-10T02:42:32;94866.81;;;-0.28;78.07
39223;BME280;24936;46.328;11.026;2023-04-10T02:44:58;94864.34;;;-0.74;79.96
39223;BME280;24936;46.328;11.026;2023-04-10T02:47:23;94870.28;;;-0.93;80.50
39223;BME280;24936;46.328;11.026;2023-04-10T02:53:23;94866.81;;;-1.15;82.09
39223;BME280;24936;46.328;11.026;2023-04-10T02:55:51;94872.41;;;-1.04;81.39
39223;BME280;24936;46.328;11.026;2023-04-10T02:58:16;94862.94;;;-1.03;81.01
39223;BME280;24936;46.328;11.026;2023-04-10T03:00:47;94862.94;;;-1.03;81.19
39223;BME280;24936;46.328;11.026;2023-04-10T03:03:13;94862.69;;;-1.19;81.90
39223;BME280;24936;46.328;11.026;2023-04-10T03:05:38;94861.94;;;-1.23;82.08
39223;BME280;24936;46.328;11.026;2023-04-10T03:08:04;94866.81;;;-1.15;81.92
39223;BME280;24936;46.328;11.026;2023-04-10T03:10:29;94865.22;;;-1.18;82.12
39223;BME280;24936;46.328;11.026;2023-04-10T03:12:55;94873.16;;;-1.23;82.21
39223;BME280;24936;46.328;11.026;2023-04-10T03:15:20;94865.69;;;-1.08;81.95
39223;BME280;24936;46.328;11.026;2023-04-10T03:17:45;94862.06;;;-1.04;81.50
39223;BME280;24936;46.328;11.026;2023-04-10T03:20:11;94867.09;;;-0.99;81.17
39223;BME280;24936;46.328;11.026;2023-04-10T03:22:37;94871.66;;;-1.06;81.12
39223;BME280;24936;46.328;11.026;2023-04-10T03:25:04;94872.41;;;-1.04;81.08
39223;BME280;24936;46.328;11.026;2023-04-10T03:27:29;94875.44;;;-0.50;78.95
39223;BME280;24936;46.328;11.026;2023-04-10T03:29:57;94863.41;;;-0.71;79.01
39223;BME280;24936;46.328;11.026;2023-04-10T03:32:23;94865.34;;;-0.99;79.91
39223;BME280;24936;46.328;11.026;2023-04-10T03:34:48;94867.31;;;-1.05;80.21
39223;BME280;24936;46.328;11.026;2023-04-10T03:37:13;94863.53;;;-1.19;80.63
39223;BME280;24936;46.328;11.026;2023-04-10T03:39:39;94866.19;;;-1.20;80.54
39223;BME280;24936;46.328;11.026;2023-04-10T03:42:04;94860.53;;;-1.30;80.86
39223;BME280;24936;46.328;11.026;2023-04-10T03:44:29;94864.72;;;-1.28;80.68
39223;BME280;24936;46.328;11.026;2023-04-10T03:46:55;94863.00;;;-1.27;80.68
39223;BME280;24936;46.328;11.026;2023-04-10T03:49:20;94864.94;;;-1.56;81.84
39223;BME280;24936;46.328;11.026;2023-04-10T03:51:45;94863.81;;;-1.73;82.93
39223;BME280;24936;46.328;11.026;2023-04-10T03:54:11;94874.31;;;-1.77;83.41
39223;BME280;24936;46.328;11.026;2023-04-10T03:56:36;94862.06;;;-1.72;83.42
39223;BME280;24936;46.328;11.026;2023-04-10T03:59:01;94871.78;;;-1.55;82.51
39223;BME280;24936;46.328;11.026;2023-04-10T04:01:27;94874.19;;;-1.50;82.13
39223;BME280;24936;46.328;11.026;2023-04-10T04:03:52;94881.38;;;-1.35;80.92
39223;BME280;24936;46.328;11.026;2023-04-10T04:06:18;94883.50;;;-1.24;80.60
39223;BME280;24936;46.328;11.026;2023-04-10T04:08:43;94873.84;;;-1.41;80.52
39223;BME280;24936;46.328;11.026;2023-04-10T04:11:08;94880.81;;;-1.21;80.44
39223;BME280;24936;46.328;11.026;2023-04-10T04:13:34;94874.69;;;-1.41;80.53
39223;BME280;24936;46.328;11.026;2023-04-10T04:15:59;94883.19;;;-1.61;81.23
39223;BME280;24936;46.328;11.026;2023-04-10T04:18:24;94880.47;;;-2.07;82.63
39223;BME280;24936;46.328;11.026;2023-04-10T04:20:50;94883.13;;;-2.08;83.81
39223;BME280;24936;46.328;11.026;2023-04-10T04:23:15;94888.66;;;-1.94;83.50
39223;BME280;24936;46.328;11.026;2023-04-10T04:25:41;94889.88;;;-1.57;81.80
39223;BME280;24936;46.328;11.026;2023-04-10T04:28:07;94891.38;;;-1.49;81.17
39223;BME280;24936;46.328;11.026;2023-04-10T04:30:33;94903.22;;;-1.93;82.59
39223;BME280;24936;46.328;11.026;2023-04-10T04:32:59;94896.56;;;-1.98;82.99
39223;BME280;24936;46.328;11.026;2023-04-10T04:35:24;94904.22;;;-1.72;82.65
39223;BME280;24936;46.328;11.026;2023-04-10T04:37:50;94902.91;;;-1.83;82.42
39223;BME280;24936;46.328;11.026;2023-04-10T04:40:15;94902.72;;;-2.03;83.36
39223;BME280;24936;46.328;11.026;2023-04-10T04:42:40;94902.81;;;-2.06;83.72
39223;BME280;24936;46.328;11.026;2023-04-10T04:45:06;94913.84;;;-1.77;82.62
39223;BME280;24936;46.328;11.026;2023-04-10T04:47:32;94912.56;;;-1.65;81.85
39223;BME280;24936;46.328;11.026;2023-04-10T04:49:57;94907.19;;;-1.59;81.81
39223;BME280;24936;46.328;11.026;2023-04-10T04:52:22;94915.97;;;-1.88;82.53
39223;BME280;24936;46.328;11.026;2023-04-10T04:54:49;94915.13;;;-1.89;82.83
39223;BME280;24936;46.328;11.026;2023-04-10T04:57:14;94917.13;;;-1.72;82.09
39223;BME280;24936;46.328;11.026;2023-04-10T04:59:40;94926.09;;;-1.82;82.34
39223;BME280;24936;46.328;11.026;2023-04-10T05:02:05;94918.63;;;-1.90;82.49
39223;BME280;24936;46.328;11.026;2023-04-10T05:04:31;94923.44;;;-1.80;82.07
39223;BME280;24936;46.328;11.026;2023-04-10T05:06:56;94922.25;;;-1.46;80.99
39223;BME280;24936;46.328;11.026;2023-04-10T05:09:21;94919.53;;;-1.43;80.46
39223;BME280;24936;46.328;11.026;2023-04-10T05:11:47;94923.09;;;-1.71;81.76
39223;BME280;24936;46.328;11.026;2023-04-10T05:14:14;94923.38;;;-1.79;82.58
39223;BME280;24936;46.328;11.026;2023-04-10T05:16:40;94922.28;;;-1.72;82.35
39223;BME280;24936;46.328;11.026;2023-04-10T05:19:05;94924.25;;;-1.55;81.19
39223;BME280;24936;46.328;11.026;2023-04-10T05:21:31;94928.16;;;-1.68;81.46
39223;BME280;24936;46.328;11.026;2023-04-10T05:23:57;94919.31;;;-1.61;81.74
39223;BME280;24936;46.328;11.026;2023-04-10T05:26:22;94916.00;;;-1.41;80.69
39223;BME280;24936;46.328;11.026;2023-04-10T05:28:47;94930.72;;;-1.43;80.39
39223;BME280;24936;46.328;11.026;2023-04-10T05:31:13;94931.78;;;-1.48;81.03
39223;BME280;24936;46.328;11.026;2023-04-10T05:33:38;94933.00;;;-1.59;81.87
39223;BME280;24936;46.328;11.026;2023-04-10T05:36:04;94928.97;;;-1.42;81.56
39223;BME280;24936;46.328;11.026;2023-04-10T05:38:29;94927.25;;;-0.96;79.55
39223;BME280;24936;46.328;11.026;2023-04-10T05:40:54;94920.75;;;-0.62;77.57
39223;BME280;24936;46.328;11.026;2023-04-10T05:43:20;94931.53;;;-0.50;76.39
39223;BME280;24936;46.328;11.026;2023-04-10T05:45:46;94933.09;;;-0.25;75.72
39223;BME280;24936;46.328;11.026;2023-04-10T05:48:11;94931.81;;;-0.15;74.74
39223;BME280;24936;46.328;11.026;2023-04-10T05:50:36;94940.16;;;-0.08;74.59
39223;BME280;24936;46.328;11.026;2023-04-10T05:53:02;94936.50;;;-0.25;76.54
39223;BME280;24936;46.328;11.026;2023-04-10T05:55:30;94929.53;;;-0.23;76.39
39223;BME280;24936;46.328;11.026;2023-04-10T05:57:55;94935.00;;;0.12;74.42
39223;BME280;24936;46.328;11.026;2023-04-10T06:00:20;94940.34;;;0.08;74.82
39223;BME280;24936;46.328;11.026;2023-04-10T06:02:46;94939.34;;;-0.09;75.38
39223;BME280;24936;46.328;11.026;2023-04-10T06:05:11;94941.00;;;0.13;75.13
39223;BME280;24936;46.328;11.026;2023-04-10T06:07:36;94941.50;;;0.21;74.54
39223;BME280;24936;46.328;11.026;2023-04-10T06:10:02;94944.94;;;0.22;74.19
39223;BME280;24936;46.328;11.026;2023-04-10T06:12:27;94948.94;;;0.29;74.76
39223;BME280;24936;46.328;11.026;2023-04-10T06:14:53;94946.59;;;0.43;74.38
39223;BME280;24936;46.328;11.026;2023-04-10T06:17:18;94948.81;;;0.32;75.06
39223;BME280;24936;46.328;11.026;2023-04-10T06:19:45;94947.59;;;0.41;74.24
39223;BME280;24936;46.328;11.026;2023-04-10T06:22:10;94952.22;;;0.53;75.16
39223;BME280;24936;46.328;11.026;2023-04-10T06:24:35;94952.94;;;0.57;76.43
39223;BME280;24936;46.328;11.026;2023-04-10T06:27:01;94959.22;;;0.51;76.32
39223;BME280;24936;46.328;11.026;2023-04-10T06:29:26;94952.56;;;0.45;76.05
39223;BME280;24936;46.328;11.026;2023-04-10T06:31:52;94960.34;;;0.45;75.81
39223;BME280;24936;46.328;11.026;2023-04-10T06:34:17;94958.06;;;0.38;74.63
39223;BME280;24936;46.328;11.026;2023-04-10T06:36:42;94951.28;;;0.35;74.49
39223;BME280;24936;46.328;11.026;2023-04-10T06:39:08;94947.69;;;0.58;73.19
39223;BME280;24936;46.328;11.026;2023-04-10T06:41:33;94956.41;;;0.96;72.72
39223;BME280;24936;46.328;11.026;2023-04-10T06:43:58;94956.50;;;1.13;72.32
39223;BME280;24936;46.328;11.026;2023-04-10T06:46:26;94958.72;;;1.21;72.15
39223;BME280;24936;46.328;11.026;2023-04-10T06:48:51;94952.53;;;1.24;71.76
39223;BME280;24936;46.328;11.026;2023-04-10T06:51:16;94949.94;;;1.43;70.42
39223;BME280;24936;46.328;11.026;2023-04-10T06:53:43;94944.78;;;1.60;69.99
39223;BME280;24936;46.328;11.026;2023-04-10T06:56:08;94952.66;;;1.76;68.82
39223;BME280;24936;46.328;11.026;2023-04-10T06:58:34;94946.50;;;1.79;68.86
39223;BME280;24936;46.328;11.026;2023-04-10T07:01:00;94942.81;;;1.83;68.49
39223;BME280;24936;46.328;11.026;2023-04-10T07:03:29;94940.97;;;1.85;68.19
39223;BME280;24936;46.328;11.026;2023-04-10T07:05:54;94933.72;;;1.92;68.74
39223;BME280;24936;46.328;11.026;2023-04-10T07:08:21;94928.94;;;2.19;67.56
39223;BME280;24936;46.328;11.026;2023-04-10T07:10:46;94927.91;;;2.39;67.30
39223;BME280;24936;46.328;11.026;2023-04-10T07:13:11;94926.50;;;2.50;66.84
39223;BME280;24936;46.328;11.026;2023-04-10T07:15:37;94929.88;;;2.52;66.17
39223;BME280;24936;46.328;11.026;2023-04-10T07:18:02;94914.94;;;2.55;64.63
39223;BME280;24936;46.328;11.026;2023-04-10T07:20:27;94919.22;;;2.56;65.57
39223;BME280;24936;46.328;11.026;2023-04-10T07:22:53;94913.78;;;2.61;66.88
39223;BME280;24936;46.328;11.026;2023-04-10T07:25:18;94920.78;;;2.77;66.21
39223;BME280;24936;46.328;11.026;2023-04-10T07:27:43;94915.28;;;2.99;65.38
39223;BME280;24936;46.328;11.026;2023-04-10T07:30:09;94911.69;;;3.17;65.47
39223;BME280;24936;46.328;11.026;2023-04-10T07:32:35;94910.41;;;3.41;65.18
39223;BME280;24936;46.328;11.026;2023-04-10T07:35:01;94913.59;;;3.62;64.85
39223;BME280;24936;46.328;11.026;2023-04-10T07:37:26;94909.59;;;3.71;64.47
39223;BME280;24936;46.328;11.026;2023-04-10T07:39:52;94909.84;;;3.82;65.11
39223;BME280;24936;46.328;11.026;2023-04-10T07:42:17;94913.41;;;3.95;64.05
39223;BME280;24936;46.328;11.026;2023-04-10T07:44:43;94910.59;;;3.98;63.57
39223;BME280;24936;46.328;11.026;2023-04-10T07:47:08;94909.06;;;4.10;63.18
39223;BME280;24936;46.328;11.026;2023-04-10T07:49:33;94908.81;;;4.29;63.34
39223;BME280;24936;46.328;11.026;2023-04-10T07:51:59;94902.84;;;4.27;62.79
39223;BME280;24936;46.328;11.026;2023-04-10T07:54:25;94903.63;;;4.44;61.99
39223;BME280;24936;46.328;11.026;2023-04-10T07:56:53;94896.84;;;4.56;61.45
39223;BME280;24936;46.328;11.026;2023-04-10T07:59:19;94900.66;;;4.79;61.34
39223;BME280;24936;46.328;11.026;2023-04-10T08:01:44;94899.19;;;5.59;59.56
39223;BME280;24936;46.328;11.026;2023-04-10T08:04:09;94893.53;;;6.71;57.43
39223;BME280;24936;46.328;11.026;2023-04-10T08:06:35;94896.41;;;7.18;55.25
39223;BME280;24936;46.328;11.026;2023-04-10T08:09:00;94895.69;;;7.89;53.23
39223;BME280;24936;46.328;11.026;2023-04-10T08:11:31;94898.41;;;8.12;54.24
39223;BME280;24936;46.328;11.026;2023-04-10T08:13:59;94892.38;;;8.81;51.07
39223;BME280;24936;46.328;11.026;2023-04-10T08:16:27;94895.81;;;8.82;51.26
39223;BME280;24936;46.328;11.026;2023-04-10T08:18:53;94896.78;;;9.03;50.48
39223;BME280;24936;46.328;11.026;2023-04-10T08:21:23;94896.06;;;9.13;47.84
39223;BME280;24936;46.328;11.026;2023-04-10T08:23:50;94894.34;;;9.34;49.12
39223;BME280;24936;46.328;11.026;2023-04-10T08:26:16;94899.38;;;9.38;48.07
39223;BME280;24936;46.328;11.026;2023-04-10T08:28:41;94895.91;;;9.48;46.50
39223;BME280;24936;46.328;11.026;2023-04-10T08:31:11;94890.22;;;9.21;45.50
39223;BME280;24936;46.328;11.026;2023-04-10T08:33:38;94889.88;;;10.02;45.76
39223;BME280;24936;46.328;11.026;2023-04-10T08:36:03;94880.78;;;9.73;44.48
39223;BME280;24936;46.328;11.026;2023-04-10T08:38:30;94892.06;;;9.53;47.79
39223;BME280;24936;46.328;11.026;2023-04-10T08:40:56;94872.47;;;10.22;43.96
39223;BME280;24936;46.328;11.026;2023-04-10T08:43:21;94870.38;;;10.89;41.52
39223;BME280;24936;46.328;11.026;2023-04-10T08:45:47;94862.28;;;11.82;40.33
39223;BME280;24936;46.328;11.026;2023-04-10T08:48:13;94864.50;;;12.46;38.50
39223;BME280;24936;46.328;11.026;2023-04-10T08:50:41;94858.63;;;13.65;37.96
39223;BME280;24936;46.328;11.026;2023-04-10T08:53:10;94849.47;;;14.50;35.21
39223;BME280;24936;46.328;11.026;2023-04-10T08:55:36;94843.78;;;14.45;34.11
39223;BME280;24936;46.328;11.026;2023-04-10T08:58:02;94851.31;;;15.53;31.01
39223;BME280;24936;46.328;11.026;2023-04-10T09:00:29;94840.69;;;15.37;31.31
39223;BME280;24936;46.328;11.026;2023-04-10T09:02:58;94836.03;;;14.70;31.24
39223;BME280;24936;46.328;11.026;2023-04-10T09:05:26;94837.19;;;15.96;29.11
39223;BME280;24936;46.328;11.026;2023-04-10T09:07:52;94828.41;;;16.61;29.36
39223;BME280;24936;46.328;11.026;2023-04-10T09:10:17;94834.03;;;15.92;29.91
39223;BME280;24936;46.328;11.026;2023-04-10T09:12:43;94834.22;;;15.99;29.22
39223;BME280;24936;46.328;11.026;2023-04-10T09:15:10;94834.72;;;16.35;28.67
39223;BME280;24936;46.328;11.026;2023-04-10T09:17:35;94831.72;;;16.30;28.97
39223;BME280;24936;46.328;11.026;2023-04-10T09:20:01;94826.94;;;16.50;30.73
39223;BME280;24936;46.328;11.026;2023-04-10T09:22:32;94828.25;;;16.38;28.88
39223;BME280;24936;46.328;11.026;2023-04-10T09:25:00;94824.25;;;16.59;29.67
39223;BME280;24936;46.328;11.026;2023-04-10T09:27:33;94827.75;;;16.34;27.83
39223;BME280;24936;46.328;11.026;2023-04-10T09:29:59;94817.47;;;16.40;27.44
39223;BME280;24936;46.328;11.026;2023-04-10T09:35:05;94811.53;;;16.94;26.41
39223;BME280;24936;46.328;11.026;2023-04-10T09:37:35;94805.59;;;17.71;24.63
39223;BME280;24936;46.328;11.026;2023-04-10T09:40:02;94804.84;;;17.86;24.63
39223;BME280;24936;46.328;11.026;2023-04-10T09:42:36;94806.00;;;18.15;25.92
39223;BME280;24936;46.328;11.026;2023-04-10T09:45:03;94797.75;;;17.78;23.61
39223;BME280;24936;46.328;11.026;2023-04-10T09:47:28;94789.56;;;17.80;26.05
39223;BME280;24936;46.328;11.026;2023-04-10T09:49:57;94792.16;;;16.85;27.59
39223;BME280;24936;46.328;11.026;2023-04-10T09:52:27;94784.00;;;17.03;23.69
39223;BME280;24936;46.328;11.026;2023-04-10T09:54:54;94785.97;;;17.01;25.17
39223;BME280;24936;46.328;11.026;2023-04-10T09:57:21;94779.47;;;18.90;24.72
39223;BME280;24936;46.328;11.026;2023-04-10T09:59:58;94779.84;;;18.18;23.84
39223;BME280;24936;46.328;11.026;2023-04-10T10:02:27;94775.50;;;17.94;23.96
39223;BME280;24936;46.328;11.026;2023-04-10T10:04:53;94771.41;;;17.60;24.68
39223;BME280;24936;46.328;11.026;2023-04-10T10:07:21;94768.41;;;16.84;25.03
39223;BME280;24936;46.328;11.026;2023-04-10T10:09:49;94758.50;;;17.95;23.03
39223;BME280;24936;46.328;11.026;2023-04-10T10:12:20;94765.38;;;16.95;25.31
39223;BME280;24936;46.328;11.026;2023-04-10T10:14:58;94755.75;;;17.34;24.82
39223;BME280;24936;46.328;11.026;2023-04-10T10:17:29;94758.84;;;18.00;25.14
39223;BME280;24936;46.328;11.026;2023-04-10T10:20:01;94748.66;;;17.26;25.02
39223;BME280;24936;46.328;11.026;2023-04-10T10:22:28;94746.84;;;17.96;23.44
39223;BME280;24936;46.328;11.026;2023-04-10T10:24:54;94747.38;;;19.65;25.82
39223;BME280;24936;46.328;11.026;2023-04-10T10:27:22;94744.06;;;19.26;22.66
39223;BME280;24936;46.328;11.026;2023-04-10T10:29:52;94745.75;;;18.82;23.57
39223;BME280;24936;46.328;11.026;2023-04-10T10:32:19;94740.34;;;19.05;22.61
39223;BME280;24936;46.328;11.026;2023-04-10T10:34:46;94740.94;;;19.22;22.28
39223;BME280;24936;46.328;11.026;2023-04-10T10:37:12;94740.53;;;20.49;19.95
39223;BME280;24936;46.328;11.026;2023-04-10T10:45:03;94716.59;;;18.80;18.56
39223;BME280;24936;46.328;11.026;2023-04-10T10:47:33;94716.09;;;19.59;17.96
39223;BME280;24936;46.328;11.026;2023-04-10T10:50:02;94711.69;;;19.51;17.92
39223;BME280;24936;46.328;11.026;2023-04-10T10:57:57;94703.63;;;19.44;20.40
39223;BME280;24936;46.328;11.026;2023-04-10T11:00:24;94699.13;;;20.10;20.30
39223;BME280;24936;46.328;11.026;2023-04-10T11:06:08;94677.72;;;18.71;18.63
39223;BME280;24936;46.328;11.026;2023-04-10T11:08:46;94680.75;;;18.98;19.44
39223;BME280;24936;46.328;11.026;2023-04-10T11:16:17;94665.50;;;19.72;19.17
39223;BME280;24936;46.328;11.026;2023-04-10T11:23:35;94658.06;;;19.67;19.10
39223;BME280;24936;46.328;11.026;2023-04-10T11:26:02;94652.94;;;20.44;18.09
39223;BME280;24936;46.328;11.026;2023-04-10T11:31:03;94644.91;;;20.09;19.89
39223;BME280;24936;46.328;11.026;2023-04-10T11:33:37;94650.19;;;20.02;19.86
39223;BME280;24936;46.328;11.026;2023-04-10T11:36:03;94639.13;;;18.82;18.79
39223;BME280;24936;46.328;11.026;2023-04-10T11:38:29;94634.59;;;20.06;20.96
39223;BME280;24936;46.328;11.026;2023-04-10T11:40:57;94630.06;;;21.32;17.96
39223;BME280;24936;46.328;11.026;2023-04-10T11:43:23;94620.19;;;21.33;19.90
39223;BME280;24936;46.328;11.026;2023-04-10T11:45:48;94612.22;;;20.42;17.83
39223;BME280;24936;46.328;11.026;2023-04-10T11:48:14;94611.50;;;20.62;19.36
39223;BME280;24936;46.328;11.026;2023-04-10T11:50:42;94612.69;;;21.01;18.54
39223;BME280;24936;46.328;11.026;2023-04-10T11:53:20;94601.53;;;20.42;19.63
39223;BME280;24936;46.328;11.026;2023-04-10T11:55:45;94593.59;;;21.11;17.04
39223;BME280;24936;46.328;11.026;2023-04-10T11:58:24;94588.97;;;20.78;18.51
39223;BME280;24936;46.328;11.026;2023-04-10T12:01:01;94593.19;;;21.07;18.29
39223;BME280;24936;46.328;11.026;2023-04-10T12:05:59;94586.09;;;19.09;18.03
39223;BME280;24936;46.328;11.026;2023-04-10T12:08:36;94586.56;;;19.34;17.55
39223;BME280;24936;46.328;11.026;2023-04-10T12:11:02;94591.75;;;20.21;18.01
39223;BME280;24936;46.328;11.026;2023-04-10T12:13:29;94580.94;;;20.01;20.05
39223;BME280;24936;46.328;11.026;2023-04-10T12:15:57;94579.22;;;21.26;19.00
39223;BME280;24936;46.328;11.026;2023-04-10T12:18:25;94586.31;;;20.08;19.81
39223;BME280;24936;46.328;11.026;2023-04-10T12:20:51;94572.22;;;20.21;20.77
39223;BME280;24936;46.328;11.026;2023-04-10T12:23:21;94572.25;;;19.92;19.18
39223;BME280;24936;46.328;11.026;2023-04-10T12:25:47;94562.06;;;20.93;20.23
39223;BME280;24936;46.328;11.026;2023-04-10T12:28:19;94572.56;;;19.54;19.17
39223;BME280;24936;46.328;11.026;2023-04-10T12:30:49;94571.78;;;19.60;20.91
39223;BME280;24936;46.328;11.026;2023-04-10T12:33:24;94562.91;;;19.81;21.78
39223;BME280;24936;46.328;11.026;2023-04-10T12:35:50;94556.78;;;20.16;19.60
39223;BME280;24936;46.328;11.026;2023-04-10T12:38:42;94557.38;;;19.54;21.08
39223;BME280;24936;46.328;11.026;2023-04-10T12:41:09;94550.72;;;19.94;19.47
39223;BME280;24936;46.328;11.026;2023-04-10T12:43:40;94549.16;;;19.56;22.22
39223;BME280;24936;46.328;11.026;2023-04-10T12:46:08;94545.81;;;19.47;20.04
39223;BME280;24936;46.328;11.026;2023-04-10T12:48:34;94542.28;;;19.90;19.25
39223;BME280;24936;46.328;11.026;2023-04-10T12:51:00;94537.91;;;19.61;18.64
39223;BME280;24936;46.328;11.026;2023-04-10T12:53:26;94534.91;;;19.20;19.14
39223;BME280;24936;46.328;11.026;2023-04-10T12:55:56;94533.69;;;19.45;19.74
39223;BME280;24936;46.328;11.026;2023-04-10T12:58:23;94528.22;;;18.88;18.26
39223;BME280;24936;46.328;11.026;2023-04-10T13:00:53;94520.91;;;20.32;19.32
39223;BME280;24936;46.328;11.026;2023-04-10T13:03:19;94522.16;;;19.66;18.68
39223;BME280;24936;46.328;11.026;2023-04-10T13:05:45;94521.44;;;19.85;17.43
39223;BME280;24936;46.328;11.026;2023-04-10T13:08:11;94525.50;;;19.75;19.31
39223;BME280;24936;46.328;11.026;2023-04-10T13:10:36;94519.41;;;19.31;19.55
39223;BME280;24936;46.328;11.026;2023-04-10T13:13:03;94522.53;;;19.63;19.43
39223;BME280;24936;46.328;11.026;2023-04-10T13:15:29;94526.00;;;19.56;19.71
39223;BME280;24936;46.328;11.026;2023-04-10T13:17:54;94525.94;;;19.78;18.44
39223;BME280;24936;46.328;11.026;2023-04-10T13:20:21;94525.91;;;19.21;20.85
39223;BME280;24936;46.328;11.026;2023-04-10T13:22:46;94518.78;;;19.07;18.62
39223;BME280;24936;46.328;11.026;2023-04-10T13:25:11;94519.72;;;18.41;18.76
39223;BME280;24936;46.328;11.026;2023-04-10T13:27:37;94513.56;;;18.77;18.09
39223;BME280;24936;46.328;11.026;2023-04-10T13:30:02;94518.50;;;18.80;19.02
39223;BME280;24936;46.328;11.026;2023-04-10T13:32:28;94515.09;;;19.30;21.82
39223;BME280;24936;46.328;11.026;2023-04-10T13:34:53;94507.81;;;19.45;18.78
39223;BME280;24936;46.328;11.026;2023-04-10T13:37:19;94510.78;;;19.29;22.23
39223;BME280;24936;46.328;11.026;2023-04-10T13:39:44;94508.09;;;18.63;22.73